This is the latest recevied weather packets stored in our database for station/object OK1PHM-12. If no packets are shown the sender has not sent any weather packets the latest 10 day(s).
| Time | Temp. | Humidity | Pressure | Rain* | Wind** | Luminosity | Snow |
|---|---|---|---|---|---|---|---|
| 1777860582 | 13.33° C | 58% | 1015.2 hPa | - | - | - | - |
| 1777859681 | 13.89° C | 55% | 1015.2 hPa | - | - | - | - |
| 1777858780 | 14.44° C | 54% | 1015 hPa | - | - | - | - |
| 1777857879 | 15.56° C | 50% | 1014.8 hPa | - | - | - | - |
| 1777856979 | 17.22° C | 45% | 1014.7 hPa | - | - | - | - |
| 1777856078 | 17.78° C | 44% | 1014.6 hPa | - | - | - | - |
| 1777855177 | 17.78° C | 43% | 1014.6 hPa | - | - | - | - |
| 1777854276 | 18.33° C | 43% | 1014.5 hPa | - | - | - | - |
| 1777853375 | 18.33° C | 43% | 1014.4 hPa | - | - | - | - |
| 1777852474 | 17.78° C | 43% | 1014.4 hPa | - | - | - | - |
| 1777851573 | 18.33° C | 43% | 1014.3 hPa | - | - | - | - |
| 1777850672 | 18.89° C | 42% | 1014.5 hPa | - | - | - | - |
| 1777849772 | 19.44° C | 40% | 1014 hPa | - | - | - | - |
| 1777848871 | 19.44° C | 40% | 1013.7 hPa | - | - | - | - |
| 1777847970 | 20° C | 39% | 1013.7 hPa | - | - | - | - |
| 1777847069 | 20° C | 39% | 1013.8 hPa | - | - | - | - |
| 1777846168 | 20° C | 39% | 1013.9 hPa | - | - | - | - |
| 1777845268 | 20° C | 39% | 1014 hPa | - | - | - | - |
| 1777844367 | 20° C | 39% | 1014 hPa | - | - | - | - |
| 1777843466 | 20° C | 39% | 1014.3 hPa | - | - | - | - |
| 1777842565 | 20.56° C | 39% | 1014.3 hPa | - | - | - | - |
| 1777841664 | 20.56° C | 38% | 1014.3 hPa | - | - | - | - |
| 1777840764 | 20.56° C | 38% | 1014.4 hPa | - | - | - | - |
| 1777839863 | 21.11° C | 38% | 1014.5 hPa | - | - | - | - |
| 1777838962 | 21.11° C | 38% | 1014.7 hPa | - | - | - | - |
* Rain since midnight (hover to see other rain measurements)
** Current wind speed in m/s (hover to see current wind gust speed)